This is the latest recevied weather packets stored in our database for station/object KC5TIL-3. If no packets are shown the sender has not sent any weather packets the latest 1 day(s).
| Time | Temp. | Humidity | Pressure | Rain* | Wind** | Luminosity | Snow |
|---|---|---|---|---|---|---|---|
| 1778002105 | 27.22° C | 36% | 1002.8 hPa | 0 mm | 4.02 m/s, 242° | - | - |
| 1778001803 | 26.67° C | 37% | 1002.8 hPa | 0 mm | 6.71 m/s, 187° | - | - |
| 1778001505 | 26.67° C | 38% | 1002.8 hPa | 0 mm | 6.71 m/s, 215° | - | - |
| 1778001203 | 26.11° C | 38% | 1002.8 hPa | 0 mm | 5.36 m/s, 203° | - | - |
| 1778000901 | 26.11° C | 39% | 1002.8 hPa | 0 mm | 5.81 m/s, 189° | - | - |
| 1778000603 | 26.11° C | 39% | 1002.8 hPa | 0 mm | 6.26 m/s, 192° | - | - |
| 1778000305 | 26.67° C | 37% | 1002.8 hPa | 0 mm | 2.68 m/s, 158° | - | - |
| 1777999705 | 26.11° C | 39% | 1002.8 hPa | 0 mm | 4.92 m/s, 212° | - | - |
| 1777999407 | 25.56° C | 40% | 1002.8 hPa | 0 mm | 7.15 m/s, 184° | - | - |
| 1777999105 | 26.11° C | 40% | 1002.8 hPa | 0 mm | 4.47 m/s, 193° | - | - |
| 1777998807 | 26.11° C | 40% | 1002.8 hPa | 0 mm | 4.02 m/s, 198° | - | - |
| 1777998509 | 26.11° C | 41% | 1002.8 hPa | 0 mm | 4.02 m/s, 182° | - | - |
| 1777998207 | 25.56° C | 41% | 1002.8 hPa | 0 mm | 6.26 m/s, 186° | - | - |
| 1777997909 | 25° C | 42% | 1002.8 hPa | 0 mm | 6.26 m/s, 226° | - | - |
| 1777997612 | 25.56° C | 42% | 1002.8 hPa | 0 mm | 5.81 m/s, 213° | - | - |
| 1777997305 | 25° C | 43% | 1002.8 hPa | 0 mm | 6.26 m/s, 212° | - | - |
| 1777997006 | 25° C | 43% | 1002.8 hPa | 0 mm | 6.71 m/s, 178° | - | - |
| 1777996402 | 25.56° C | 43% | 1002.8 hPa | 0 mm | 4.47 m/s, 126° | - | - |
| 1777996104 | 25° C | 44% | 1002.8 hPa | 0 mm | 5.81 m/s, 234° | - | - |
| 1777995505 | 24.44° C | 48% | 1002.8 hPa | 0 mm | 5.81 m/s, 217° | - | - |
| 1777995207 | 24.44° C | 49% | 1002.8 hPa | 0 mm | 5.81 m/s, 115° | - | - |
| 1777994602 | 23.89° C | 50% | 1002.8 hPa | 0 mm | 6.71 m/s, 211° | - | - |
| 1777994304 | 23.89° C | 51% | 1002.8 hPa | 0 mm | 6.26 m/s, 146° | - | - |
| 1777993407 | 23.89° C | 51% | 1002.8 hPa | 0 mm | 5.36 m/s, 187° | - | - |
| 1777992798 | 23.33° C | 54% | 1002.8 hPa | 0 mm | 4.92 m/s, 223° | - | - |
* Rain latest hour (hover to see other rain measurements)
** Current wind speed in m/s (hover to see current wind gust speed)